createdAt,value
2018-08-22T00:02:35.159Z,72.40
2018-08-22T00:07:38.431Z,72.10
2018-08-22T00:12:41.682Z,73.50
2018-08-22T00:17:45.008Z,74.20
2018-08-22T00:22:48.313Z,74.00
2018-08-22T00:27:51.611Z,74.20
2018-08-22T00:32:54.926Z,75.10
2018-08-22T00:37:58.198Z,75.70
2018-08-22T00:43:01.582Z,76.50
2018-08-22T00:48:04.838Z,76.10
2018-08-22T00:53:08.147Z,76.20
2018-08-22T01:03:14.431Z,76.80
2018-08-22T01:08:17.793Z,76.90
2018-08-22T01:13:21.143Z,76.80
2018-08-22T01:18:24.438Z,77.80
2018-08-22T01:23:27.795Z,78.40
2018-08-22T01:28:31.118Z,78.40
2018-08-22T01:33:34.634Z,77.90
2018-08-22T01:38:37.997Z,78.80
2018-08-22T01:43:41.323Z,79.50
2018-08-22T01:48:44.631Z,79.50
2018-08-22T01:53:47.965Z,79.60
2018-08-22T01:58:51.402Z,79.40
2018-08-22T02:03:54.697Z,79.80
2018-08-22T02:08:58.079Z,82.10
2018-08-22T02:14:01.365Z,82.70
2018-08-22T02:19:04.867Z,83.80
2018-08-22T02:24:08.168Z,79.80
2018-08-22T02:29:11.570Z,81.50
2018-08-22T02:34:14.872Z,83.90
2018-08-22T02:39:18.238Z,82.10
2018-08-22T02:44:21.541Z,81.20
2018-08-22T02:49:24.882Z,81.30
2018-08-22T02:54:28.253Z,81.60
2018-08-22T02:59:31.578Z,82.60
2018-08-22T03:04:34.971Z,82.70
2018-08-22T03:09:38.286Z,83.50
2018-08-22T03:14:41.602Z,84.10
2018-08-22T03:19:45.044Z,84.10
2018-08-22T03:24:48.441Z,84.40
2018-08-22T03:29:51.789Z,83.70
2018-08-22T03:34:55.067Z,83.10
2018-08-22T03:39:58.478Z,84.70
2018-08-22T03:45:01.752Z,83.20
2018-08-22T03:50:05.464Z,83.90
2018-08-22T03:55:08.883Z,84.10
2018-08-22T04:00:12.334Z,85.10
2018-08-22T04:05:15.767Z,86.60
2018-08-22T04:10:19.059Z,87.60
2018-08-22T04:15:22.444Z,87.40
2018-08-22T04:20:25.761Z,86.20
2018-08-22T04:25:29.032Z,86.20
2018-08-22T04:30:32.427Z,89.40
2018-08-22T04:35:35.731Z,87.20
2018-08-22T04:40:39.063Z,85.80
2018-08-22T04:45:42.415Z,86.90
2018-08-22T04:50:45.810Z,87.60
2018-08-22T04:55:49.103Z,87.20
2018-08-22T05:00:52.499Z,87.30
2018-08-22T05:05:55.962Z,87.70
2018-08-22T05:10:59.311Z,87.00
2018-08-22T05:16:02.615Z,87.40
2018-08-22T05:21:08.999Z,87.20
2018-08-22T05:26:12.343Z,88.00
2018-08-22T05:31:15.840Z,87.30
2018-08-22T05:36:19.211Z,87.20
2018-08-22T05:41:22.571Z,87.30
2018-08-22T05:46:25.892Z,86.40
2018-08-22T05:51:29.255Z,86.40
2018-08-22T05:56:32.592Z,85.80
2018-08-22T06:01:35.901Z,85.10
2018-08-22T06:06:39.179Z,84.70
2018-08-22T06:11:43.632Z,84.50
2018-08-22T06:16:46.900Z,84.20
2018-08-22T06:21:50.337Z,84.00
2018-08-22T06:26:53.635Z,84.00
2018-08-22T06:31:56.978Z,82.80
2018-08-22T06:37:00.286Z,82.30
2018-08-22T06:42:03.551Z,81.90
2018-08-22T06:47:06.811Z,81.20
2018-08-22T06:52:10.106Z,80.20
2018-08-22T06:57:13.475Z,80.00
2018-08-22T07:02:16.704Z,80.20
2018-08-22T07:07:19.997Z,79.20
2018-08-22T07:12:23.243Z,78.70
2018-08-22T07:17:26.550Z,77.90
2018-08-22T07:22:29.882Z,77.10
2018-08-22T07:27:33.193Z,75.90
2018-08-22T07:32:36.528Z,75.70
2018-08-22T07:37:39.823Z,75.30
2018-08-22T07:42:43.086Z,74.50
2018-08-22T07:47:46.419Z,74.00
2018-08-22T07:53:05.125Z,73.00
2018-08-22T07:58:08.483Z,71.40
2018-08-22T08:03:11.795Z,70.20
2018-08-22T08:08:15.044Z,70.50
2018-08-22T08:13:23.788Z,69.50
2018-08-22T08:18:27.108Z,68.80
2018-08-22T08:23:30.414Z,65.80
2018-08-22T08:28:33.775Z,65.00
2018-08-22T08:33:37.044Z,64.30
2018-08-22T08:38:40.567Z,64.00
2018-08-22T08:43:43.811Z,63.80
2018-08-22T08:48:47.232Z,61.70
2018-08-22T08:53:50.503Z,60.50
2018-08-22T08:58:54.022Z,59.30
2018-08-22T09:03:57.563Z,59.50
2018-08-22T09:09:00.695Z,59.20
2018-08-22T09:14:04.029Z,59.10
2018-08-22T09:19:07.367Z,58.20
2018-08-22T09:24:11.057Z,59.00
2018-08-22T09:29:14.285Z,57.60
2018-08-22T09:34:17.643Z,57.30
2018-08-22T09:39:20.927Z,56.50
2018-08-22T09:44:24.233Z,56.40
2018-08-22T09:49:27.620Z,55.60
2018-08-22T09:54:30.984Z,56.90
2018-08-22T09:59:34.255Z,57.00
2018-08-22T10:04:37.523Z,56.20
2018-08-22T10:09:40.835Z,55.90
2018-08-22T10:14:44.123Z,56.40
2018-08-22T10:19:47.497Z,55.30
2018-08-22T10:29:53.743Z,54.80
2018-08-22T10:34:57.042Z,54.10
2018-08-22T10:40:00.336Z,53.10
2018-08-22T10:45:03.656Z,54.20
2018-08-22T10:50:08.052Z,53.60
2018-08-22T10:55:11.340Z,52.40
2018-08-22T11:00:14.664Z,49.80
2018-08-22T11:05:17.949Z,51.10
2018-08-22T11:10:21.355Z,48.50
2018-08-22T11:15:24.724Z,49.70
2018-08-22T11:20:28.839Z,48.10
2018-08-22T11:25:43.379Z,46.60
2018-08-22T11:30:58.181Z,46.30
2018-08-22T11:36:00.444Z,44.30
2018-08-22T11:41:03.830Z,45.20
2018-08-22T11:46:07.221Z,45.00
2018-08-22T11:51:10.465Z,45.20
2018-08-22T11:56:13.995Z,45.60
2018-08-22T12:01:17.300Z,44.00
2018-08-22T12:06:20.652Z,43.30
2018-08-22T12:11:24.056Z,43.60
2018-08-22T12:16:27.310Z,42.60
2018-08-22T12:21:30.564Z,43.20
2018-08-22T12:26:34.055Z,42.10
2018-08-22T12:31:37.375Z,41.70
2018-08-22T12:36:40.694Z,41.00
2018-08-22T12:41:44.078Z,41.20
2018-08-22T12:46:47.418Z,41.50
2018-08-22T12:51:50.808Z,40.30
2018-08-22T12:56:54.059Z,40.20
2018-08-22T13:01:57.417Z,41.40
2018-08-22T13:07:00.670Z,39.40
2018-08-22T13:12:03.924Z,39.90
2018-08-22T13:17:07.331Z,40.50
2018-08-22T13:22:10.485Z,40.30
2018-08-22T13:27:13.890Z,39.50
2018-08-22T13:32:17.160Z,39.90
2018-08-22T13:37:20.469Z,40.20
2018-08-22T13:42:23.769Z,40.00
2018-08-22T13:47:27.184Z,39.40
2018-08-22T13:52:30.505Z,39.60
2018-08-22T13:57:33.788Z,39.80
2018-08-22T14:02:37.179Z,39.70
2018-08-22T14:07:40.428Z,40.00
2018-08-22T14:12:43.728Z,39.60
2018-08-22T14:17:46.982Z,40.10
2018-08-22T14:22:50.256Z,38.90
2018-08-22T14:27:53.669Z,39.00
2018-08-22T14:32:56.919Z,38.60
2018-08-22T14:38:00.318Z,38.70
2018-08-22T14:43:03.720Z,38.90
2018-08-22T14:48:06.981Z,38.90
2018-08-22T14:53:10.372Z,39.30
2018-08-22T14:58:13.663Z,38.80
2018-08-22T15:03:17.211Z,36.90
2018-08-22T15:08:20.227Z,37.60
2018-08-22T15:13:23.599Z,36.60
2018-08-22T15:18:26.879Z,35.80
2018-08-22T15:23:30.139Z,36.10
2018-08-22T15:33:36.537Z,36.30
2018-08-22T15:38:39.827Z,35.70
2018-08-22T15:43:43.095Z,36.10
2018-08-22T15:48:46.374Z,35.50
2018-08-22T15:54:13.371Z,35.20
2018-08-22T15:59:18.324Z,36.00
2018-08-22T16:04:21.655Z,35.50
2018-08-22T16:14:33.755Z,35.40
2018-08-22T16:19:37.081Z,36.00
2018-08-22T16:24:42.237Z,36.70
2018-08-22T16:29:45.592Z,37.10
2018-08-22T16:34:48.994Z,37.40
2018-08-22T16:39:52.360Z,36.80
2018-08-22T16:44:55.670Z,37.10
2018-08-22T16:49:58.921Z,37.50
2018-08-22T16:55:18.993Z,37.20
2018-08-22T17:00:37.124Z,37.50
2018-08-22T17:05:40.367Z,37.30
2018-08-22T17:10:54.159Z,38.00
2018-08-22T17:15:58.603Z,38.20
2018-08-22T17:21:01.858Z,38.50
2018-08-22T17:26:05.419Z,38.90
2018-08-22T17:31:09.265Z,39.70
2018-08-22T17:41:16.710Z,43.20
2018-08-22T17:46:20.007Z,42.20
2018-08-22T17:51:23.379Z,43.10
2018-08-22T17:56:27.357Z,44.80
2018-08-22T18:01:30.720Z,46.70
2018-08-22T18:06:33.976Z,47.30
2018-08-22T18:11:37.287Z,47.00
2018-08-22T18:16:40.544Z,48.00
2018-08-22T18:21:46.507Z,50.60
2018-08-22T18:26:50.034Z,49.30
2018-08-22T18:31:53.404Z,51.20
2018-08-22T18:36:56.839Z,49.40
2018-08-22T18:42:00.155Z,52.40
2018-08-22T18:47:03.451Z,51.70
2018-08-22T18:52:06.767Z,53.60
2018-08-22T18:57:10.080Z,53.40
2018-08-22T19:02:13.367Z,53.70
2018-08-22T19:07:16.830Z,54.90
2018-08-22T19:12:20.691Z,52.60
2018-08-22T19:17:24.140Z,52.40
2018-08-22T19:22:27.393Z,52.80
2018-08-22T19:27:31.276Z,53.20
2018-08-22T19:32:34.600Z,53.40
2018-08-22T19:37:37.867Z,56.00
2018-08-22T19:42:41.368Z,54.90
2018-08-22T19:47:44.708Z,57.00
2018-08-22T19:52:48.022Z,55.10
2018-08-22T19:57:51.435Z,55.70
2018-08-22T20:02:54.840Z,54.90
2018-08-22T20:07:58.139Z,55.00
2018-08-22T20:13:01.695Z,55.90
2018-08-22T20:18:05.156Z,56.80
2018-08-22T20:23:08.505Z,56.80
2018-08-22T20:28:12.253Z,58.90
2018-08-22T20:33:15.567Z,60.40
2018-08-22T20:38:18.972Z,59.70
2018-08-22T20:43:27.588Z,58.70
2018-08-22T20:48:31.077Z,58.80
2018-08-22T20:53:34.369Z,59.70
2018-08-22T20:58:37.701Z,62.70
2018-08-22T21:03:41.054Z,63.40
2018-08-22T21:08:44.637Z,62.90
2018-08-22T21:13:47.932Z,63.70
2018-08-22T21:18:51.259Z,63.20
2018-08-22T21:23:54.611Z,61.80
2018-08-22T21:28:57.908Z,62.00
2018-08-22T21:34:07.054Z,62.70
2018-08-22T21:39:15.744Z,62.30
2018-08-22T21:44:21.024Z,63.60
2018-08-22T21:49:24.914Z,65.40
2018-08-22T21:54:28.395Z,64.30
2018-08-22T21:59:31.782Z,64.40
2018-08-22T22:04:36.262Z,64.20
2018-08-22T22:09:40.028Z,64.50
2018-08-22T22:14:44.016Z,65.20
2018-08-22T22:19:47.360Z,64.50
2018-08-22T22:24:56.162Z,65.10
2018-08-22T22:30:01.595Z,65.80
2018-08-22T22:35:05.167Z,67.60
2018-08-22T22:40:08.691Z,69.90
2018-08-22T22:45:12.260Z,71.00
2018-08-22T22:50:15.679Z,71.60
2018-08-22T22:55:19.111Z,72.00
2018-08-22T23:00:22.642Z,69.70
2018-08-22T23:05:30.133Z,68.50
2018-08-22T23:10:33.503Z,68.50
2018-08-22T23:15:36.763Z,69.50
2018-08-22T23:20:43.718Z,70.40
2018-08-22T23:25:47.059Z,71.60
2018-08-22T23:30:50.354Z,72.30
2018-08-22T23:35:53.643Z,72.20
2018-08-22T23:40:56.956Z,71.90
2018-08-22T23:46:00.286Z,72.10
2018-08-22T23:51:05.012Z,71.40
2018-08-22T23:56:27.123Z,72.30
